sensor_id;sensor_type;location;lat;lon;timestamp;pressure;altitude;pressure_sealevel;temperature;humidity
62011;BME280;47967;51.756;10.174;2023-05-09T04:03:48;100063.22;;;7.91;77.29
62011;BME280;47967;51.756;10.174;2023-05-09T04:07:53;100065.78;;;7.84;77.42
62011;BME280;47967;51.756;10.174;2023-05-09T04:11:56;100064.22;;;7.90;77.87
62011;BME280;47967;51.756;10.174;2023-05-09T04:15:59;100060.00;;;7.95;77.98
62011;BME280;47967;51.756;10.174;2023-05-09T04:20:06;100052.56;;;8.06;77.64
62011;BME280;47967;51.756;10.174;2023-05-09T04:24:09;100058.31;;;7.94;77.66
62011;BME280;47967;51.756;10.174;2023-05-09T04:28:16;100049.75;;;7.99;77.70
62011;BME280;47967;51.756;10.174;2023-05-09T04:32:18;100049.00;;;8.13;77.45
62011;BME280;47967;51.756;10.174;2023-05-09T04:36:25;100050.41;;;8.32;77.54
62011;BME280;47967;51.756;10.174;2023-05-09T04:40:31;100047.00;;;8.62;76.62
62011;BME280;47967;51.756;10.174;2023-05-09T04:44:34;100046.94;;;8.70;75.77
62011;BME280;47967;51.756;10.174;2023-05-09T04:48:37;100040.66;;;8.78;76.05
62011;BME280;47967;51.756;10.174;2023-05-09T04:52:41;100047.56;;;9.10;75.50
62011;BME280;47967;51.756;10.174;2023-05-09T04:56:44;100035.09;;;9.33;74.61
62011;BME280;47967;51.756;10.174;2023-05-09T05:00:47;100032.19;;;9.49;74.38
62011;BME280;47967;51.756;10.174;2023-05-09T05:04:51;100023.63;;;9.75;73.49
62011;BME280;47967;51.756;10.174;2023-05-09T05:09:13;100019.56;;;10.01;73.06
62011;BME280;47967;51.756;10.174;2023-05-09T05:13:17;100012.91;;;10.19;72.32
62011;BME280;47967;51.756;10.174;2023-05-09T05:17:25;100010.63;;;10.37;71.56
62011;BME280;47967;51.756;10.174;2023-05-09T05:21:31;100006.66;;;10.55;70.88
62011;BME280;47967;51.756;10.174;2023-05-09T05:25:35;100010.72;;;10.72;70.92
62011;BME280;47967;51.756;10.174;2023-05-09T05:29:39;100010.72;;;10.72;70.33
62011;BME280;47967;51.756;10.174;2023-05-09T05:33:41;100011.03;;;10.84;69.79
62011;BME280;47967;51.756;10.174;2023-05-09T05:37:44;100009.91;;;11.00;71.43
62011;BME280;47967;51.756;10.174;2023-05-09T05:41:51;100013.59;;;11.28;71.48
62011;BME280;47967;51.756;10.174;2023-05-09T05:45:53;100006.13;;;11.65;72.00
62011;BME280;47967;51.756;10.174;2023-05-09T05:49:58;100001.31;;;12.09;70.56
62011;BME280;47967;51.756;10.174;2023-05-09T05:54:01;99990.75;;;12.41;67.95
62011;BME280;47967;51.756;10.174;2023-05-09T05:58:05;99996.38;;;12.59;68.70
62011;BME280;47967;51.756;10.174;2023-05-09T06:02:08;99989.53;;;12.77;67.83
62011;BME280;47967;51.756;10.174;2023-05-09T06:06:11;99994.09;;;12.96;66.78
62011;BME280;47967;51.756;10.174;2023-05-09T06:10:14;99993.22;;;13.09;66.46
62011;BME280;47967;51.756;10.174;2023-05-09T06:14:20;99986.69;;;13.37;65.75
62011;BME280;47967;51.756;10.174;2023-05-09T06:18:23;99992.69;;;13.66;65.24
62011;BME280;47967;51.756;10.174;2023-05-09T06:22:25;99980.28;;;13.90;64.52
62011;BME280;47967;51.756;10.174;2023-05-09T06:26:28;99971.34;;;14.15;62.59
62011;BME280;47967;51.756;10.174;2023-05-09T06:30:32;99962.41;;;14.40;61.25
62011;BME280;47967;51.756;10.174;2023-05-09T06:34:35;99961.78;;;14.70;60.57
62011;BME280;47967;51.756;10.174;2023-05-09T06:38:38;99961.72;;;14.77;59.64
62011;BME280;47967;51.756;10.174;2023-05-09T06:42:40;99956.34;;;14.95;60.62
62011;BME280;47967;51.756;10.174;2023-05-09T06:46:44;99948.41;;;15.12;58.67
62011;BME280;47967;51.756;10.174;2023-05-09T06:50:47;99942.06;;;15.37;59.48
62011;BME280;47967;51.756;10.174;2023-05-09T06:54:50;99933.28;;;15.53;58.43
62011;BME280;47967;51.756;10.174;2023-05-09T06:58:53;99923.63;;;15.58;57.71
62011;BME280;47967;51.756;10.174;2023-05-09T07:02:57;99927.47;;;15.68;56.65
62011;BME280;47967;51.756;10.174;2023-05-09T07:07:00;99919.53;;;15.97;56.77
62011;BME280;47967;51.756;10.174;2023-05-09T07:11:02;99904.59;;;16.19;54.80
62011;BME280;47967;51.756;10.174;2023-05-09T07:15:06;99906.28;;;16.55;55.62
62011;BME280;47967;51.756;10.174;2023-05-09T07:19:10;99907.81;;;16.99;53.05
62011;BME280;47967;51.756;10.174;2023-05-09T07:23:13;99898.03;;;17.26;52.76
62011;BME280;47967;51.756;10.174;2023-05-09T07:27:16;99895.84;;;17.40;52.26
62011;BME280;47967;51.756;10.174;2023-05-09T07:31:18;99887.03;;;17.50;51.13
62011;BME280;47967;51.756;10.174;2023-05-09T07:35:22;99886.91;;;17.57;51.30
62011;BME280;47967;51.756;10.174;2023-05-09T07:39:25;99871.66;;;17.73;50.73
62011;BME280;47967;51.756;10.174;2023-05-09T07:43:28;99874.91;;;17.87;49.83
62011;BME280;47967;51.756;10.174;2023-05-09T07:47:30;99866.94;;;17.97;49.70
62011;BME280;47967;51.756;10.174;2023-05-09T07:51:34;99873.31;;;18.20;49.10
62011;BME280;47967;51.756;10.174;2023-05-09T07:55:37;99862.38;;;18.37;48.73
62011;BME280;47967;51.756;10.174;2023-05-09T07:59:39;99848.03;;;18.47;48.33
62011;BME280;47967;51.756;10.174;2023-05-09T08:03:42;99840.97;;;18.68;48.42
62011;BME280;47967;51.756;10.174;2023-05-09T08:07:46;99839.22;;;18.79;48.24
62011;BME280;47967;51.756;10.174;2023-05-09T08:11:49;99838.63;;;18.77;48.12
62011;BME280;47967;51.756;10.174;2023-05-09T08:15:51;99832.78;;;18.90;48.10
62011;BME280;47967;51.756;10.174;2023-05-09T08:19:54;99833.56;;;19.08;48.53
62011;BME280;47967;51.756;10.174;2023-05-09T08:23:58;99829.84;;;18.92;47.74
62011;BME280;47967;51.756;10.174;2023-05-09T08:28:02;99835.53;;;18.90;47.84
62011;BME280;47967;51.756;10.174;2023-05-09T08:32:05;99828.50;;;18.77;47.01
62011;BME280;47967;51.756;10.174;2023-05-09T08:36:07;99814.16;;;18.87;48.01
62011;BME280;47967;51.756;10.174;2023-05-09T08:40:12;99807.06;;;18.86;48.20
62011;BME280;47967;51.756;10.174;2023-05-09T08:44:15;99789.19;;;19.00;48.50
62011;BME280;47967;51.756;10.174;2023-05-09T08:48:19;99793.72;;;19.12;48.17
62011;BME280;47967;51.756;10.174;2023-05-09T08:52:23;99789.34;;;19.38;47.87
62011;BME280;47967;51.756;10.174;2023-05-09T08:56:28;99788.56;;;19.43;48.14
62011;BME280;47967;51.756;10.174;2023-05-09T09:00:32;99789.84;;;19.62;47.63
62011;BME280;47967;51.756;10.174;2023-05-09T09:04:35;99779.44;;;19.59;46.83
62011;BME280;47967;51.756;10.174;2023-05-09T09:08:37;99769.97;;;19.77;47.07
62011;BME280;47967;51.756;10.174;2023-05-09T09:12:43;99772.41;;;19.74;46.65
62011;BME280;47967;51.756;10.174;2023-05-09T09:16:50;99764.94;;;19.91;47.07
62011;BME280;47967;51.756;10.174;2023-05-09T09:20:56;99770.78;;;20.05;46.49
62011;BME280;47967;51.756;10.174;2023-05-09T09:24:59;99757.78;;;20.28;47.08
62011;BME280;47967;51.756;10.174;2023-05-09T09:29:03;99752.13;;;20.45;46.24
62011;BME280;47967;51.756;10.174;2023-05-09T09:33:07;99741.75;;;20.57;46.04
62011;BME280;47967;51.756;10.174;2023-05-09T09:37:20;99735.47;;;20.62;46.98
62011;BME280;47967;51.756;10.174;2023-05-09T09:41:29;99734.91;;;20.60;46.06
62011;BME280;47967;51.756;10.174;2023-05-09T09:45:33;99728.97;;;20.73;46.12
62011;BME280;47967;51.756;10.174;2023-05-09T09:49:37;99716.47;;;21.08;47.14
62011;BME280;47967;51.756;10.174;2023-05-09T09:53:46;99713.75;;;21.29;46.85
62011;BME280;47967;51.756;10.174;2023-05-09T09:57:49;99719.75;;;21.21;45.50
62011;BME280;47967;51.756;10.174;2023-05-09T10:01:58;99712.66;;;21.35;46.42
62011;BME280;47967;51.756;10.174;2023-05-09T10:06:03;99707.44;;;21.54;45.98
62011;BME280;47967;51.756;10.174;2023-05-09T10:10:06;99703.63;;;21.66;44.74
62011;BME280;47967;51.756;10.174;2023-05-09T10:14:09;99697.88;;;21.62;45.15
62011;BME280;47967;51.756;10.174;2023-05-09T10:18:13;99691.53;;;21.72;46.02
62011;BME280;47967;51.756;10.174;2023-05-09T10:22:20;99678.84;;;21.97;46.39
62011;BME280;47967;51.756;10.174;2023-05-09T10:26:25;99683.72;;;22.26;46.08
62011;BME280;47967;51.756;10.174;2023-05-09T10:30:31;99673.88;;;22.09;45.30
62011;BME280;47967;51.756;10.174;2023-05-09T10:34:39;99663.72;;;22.10;44.93
62011;BME280;47967;51.756;10.174;2023-05-09T10:38:43;99657.94;;;22.11;44.74
62011;BME280;47967;51.756;10.174;2023-05-09T10:42:47;99650.19;;;22.39;44.96
62011;BME280;47967;51.756;10.174;2023-05-09T10:46:50;99635.03;;;22.42;44.65
62011;BME280;47967;51.756;10.174;2023-05-09T10:50:55;99627.97;;;22.75;45.29
62011;BME280;47967;51.756;10.174;2023-05-09T10:54:58;99610.31;;;22.86;44.87
62011;BME280;47967;51.756;10.174;2023-05-09T10:59:02;99608.00;;;22.99;44.93
62011;BME280;47967;51.756;10.174;2023-05-09T11:03:05;99602.44;;;22.69;44.97
62011;BME280;47967;51.756;10.174;2023-05-09T11:07:23;99603.13;;;22.91;45.01
62011;BME280;47967;51.756;10.174;2023-05-09T11:11:28;99584.22;;;23.13;44.91
62011;BME280;47967;51.756;10.174;2023-05-09T11:15:30;99590.09;;;23.01;43.67
62011;BME280;47967;51.756;10.174;2023-05-09T11:19:35;99576.91;;;22.98;44.08
62011;BME280;47967;51.756;10.174;2023-05-09T11:23:39;99567.03;;;23.32;44.34
62011;BME280;47967;51.756;10.174;2023-05-09T11:27:43;99568.78;;;23.47;43.75
62011;BME280;47967;51.756;10.174;2023-05-09T11:32:04;99559.53;;;23.62;43.98
62011;BME280;47967;51.756;10.174;2023-05-09T11:36:14;99552.75;;;23.78;43.69
62011;BME280;47967;51.756;10.174;2023-05-09T11:40:20;99548.88;;;23.79;42.77
62011;BME280;47967;51.756;10.174;2023-05-09T11:44:23;99548.28;;;24.07;42.86
62011;BME280;47967;51.756;10.174;2023-05-09T11:48:28;99543.38;;;23.79;42.71
62011;BME280;47967;51.756;10.174;2023-05-09T11:52:31;99533.56;;;23.97;42.65
62011;BME280;47967;51.756;10.174;2023-05-09T11:56:37;99526.56;;;24.05;42.67
62011;BME280;47967;51.756;10.174;2023-05-09T12:00:43;99519.25;;;23.95;43.10
62011;BME280;47967;51.756;10.174;2023-05-09T12:04:45;99519.28;;;24.14;42.57
62011;BME280;47967;51.756;10.174;2023-05-09T12:08:48;99511.44;;;24.41;42.31
62011;BME280;47967;51.756;10.174;2023-05-09T12:12:52;99511.41;;;24.79;42.48
62011;BME280;47967;51.756;10.174;2023-05-09T12:16:56;99501.53;;;24.92;42.40
62011;BME280;47967;51.756;10.174;2023-05-09T12:20:59;99492.72;;;24.76;41.35
62011;BME280;47967;51.756;10.174;2023-05-09T12:25:04;99493.47;;;24.96;41.44
62011;BME280;47967;51.756;10.174;2023-05-09T12:29:09;99493.09;;;24.69;41.62
62011;BME280;47967;51.756;10.174;2023-05-09T12:33:13;99484.94;;;25.11;42.33
62011;BME280;47967;51.756;10.174;2023-05-09T12:37:17;99479.03;;;25.60;41.63
62011;BME280;47967;51.756;10.174;2023-05-09T12:41:20;99475.91;;;25.05;41.83
62011;BME280;47967;51.756;10.174;2023-05-09T12:45:32;99468.25;;;25.30;40.89
62011;BME280;47967;51.756;10.174;2023-05-09T12:49:35;99467.63;;;25.05;41.37
62011;BME280;47967;51.756;10.174;2023-05-09T12:53:39;99462.53;;;25.13;41.71
62011;BME280;47967;51.756;10.174;2023-05-09T12:57:42;99468.41;;;25.39;41.77
62011;BME280;47967;51.756;10.174;2023-05-09T13:01:50;99458.22;;;25.06;40.81
62011;BME280;47967;51.756;10.174;2023-05-09T13:05:53;99454.03;;;25.23;41.33
62011;BME280;47967;51.756;10.174;2023-05-09T13:09:57;99449.88;;;25.25;41.76
62011;BME280;47967;51.756;10.174;2023-05-09T13:14:01;99442.50;;;25.63;42.04
62011;BME280;47967;51.756;10.174;2023-05-09T13:18:05;99423.03;;;25.82;40.59
62011;BME280;47967;51.756;10.174;2023-05-09T13:22:08;99430.13;;;25.60;41.33
62011;BME280;47967;51.756;10.174;2023-05-09T13:26:12;99432.41;;;25.44;40.25
62011;BME280;47967;51.756;10.174;2023-05-09T13:30:16;99421.34;;;25.44;40.38
62011;BME280;47967;51.756;10.174;2023-05-09T13:34:20;99416.41;;;25.69;40.07
62011;BME280;47967;51.756;10.174;2023-05-09T13:38:23;99412.84;;;25.54;40.38
62011;BME280;47967;51.756;10.174;2023-05-09T13:42:26;99406.06;;;25.75;40.61
62011;BME280;47967;51.756;10.174;2023-05-09T13:46:28;99396.06;;;25.65;40.26
62011;BME280;47967;51.756;10.174;2023-05-09T13:50:32;99391.66;;;25.64;39.61
62011;BME280;47967;51.756;10.174;2023-05-09T13:54:35;99386.53;;;25.94;40.10
62011;BME280;47967;51.756;10.174;2023-05-09T13:58:37;99376.56;;;26.52;40.61
62011;BME280;47967;51.756;10.174;2023-05-09T14:02:40;99361.84;;;26.65;40.02
62011;BME280;47967;51.756;10.174;2023-05-09T14:06:44;99354.97;;;26.63;38.63
62011;BME280;47967;51.756;10.174;2023-05-09T14:10:48;99343.94;;;27.03;39.05
62011;BME280;47967;51.756;10.174;2023-05-09T14:14:51;99349.59;;;26.58;39.06
62011;BME280;47967;51.756;10.174;2023-05-09T14:18:53;99327.97;;;26.28;38.24
62011;BME280;47967;51.756;10.174;2023-05-09T14:22:57;99331.03;;;26.27;39.18
62011;BME280;47967;51.756;10.174;2023-05-09T14:27:01;99324.44;;;26.14;39.32
62011;BME280;47967;51.756;10.174;2023-05-09T14:31:04;99319.53;;;26.65;38.61
62011;BME280;47967;51.756;10.174;2023-05-09T14:35:07;99308.81;;;26.72;38.37
62011;BME280;47967;51.756;10.174;2023-05-09T14:39:11;99309.59;;;26.64;38.41
62011;BME280;47967;51.756;10.174;2023-05-09T14:43:13;99296.19;;;26.97;38.70
62011;BME280;47967;51.756;10.174;2023-05-09T14:47:16;99292.28;;;26.90;37.86
62011;BME280;47967;51.756;10.174;2023-05-09T14:51:19;99289.53;;;27.07;37.64
62011;BME280;47967;51.756;10.174;2023-05-09T14:55:23;99284.16;;;27.02;37.00
62011;BME280;47967;51.756;10.174;2023-05-09T14:59:27;99267.38;;;27.07;37.20
62011;BME280;47967;51.756;10.174;2023-05-09T15:03:29;99270.44;;;26.79;37.24
62011;BME280;47967;51.756;10.174;2023-05-09T15:07:32;99261.50;;;26.51;37.03
62011;BME280;47967;51.756;10.174;2023-05-09T15:11:36;99256.28;;;26.81;36.81
62011;BME280;47967;51.756;10.174;2023-05-09T15:15:49;99256.09;;;26.77;37.64
62011;BME280;47967;51.756;10.174;2023-05-09T15:19:51;99258.88;;;26.77;38.35
62011;BME280;47967;51.756;10.174;2023-05-09T15:23:54;99255.91;;;26.74;37.29
62011;BME280;47967;51.756;10.174;2023-05-09T15:27:59;99248.38;;;26.25;37.52
62011;BME280;47967;51.756;10.174;2023-05-09T15:32:01;99245.97;;;26.32;37.85
62011;BME280;47967;51.756;10.174;2023-05-09T15:36:04;99242.41;;;26.32;37.33
62011;BME280;47967;51.756;10.174;2023-05-09T15:40:07;99234.34;;;26.53;36.66
62011;BME280;47967;51.756;10.174;2023-05-09T15:44:11;99228.22;;;26.74;36.78
62011;BME280;47967;51.756;10.174;2023-05-09T15:48:15;99221.41;;;26.31;36.62
62011;BME280;47967;51.756;10.174;2023-05-09T15:52:17;99221.50;;;26.57;36.49
62011;BME280;47967;51.756;10.174;2023-05-09T15:56:20;99208.59;;;27.10;36.39
62011;BME280;47967;51.756;10.174;2023-05-09T16:00:24;99216.06;;;26.92;35.39
62011;BME280;47967;51.756;10.174;2023-05-09T16:04:26;99203.53;;;26.95;35.42
62011;BME280;47967;51.756;10.174;2023-05-09T16:08:29;99209.72;;;27.27;36.05
62011;BME280;47967;51.756;10.174;2023-05-09T16:12:31;99199.16;;;27.11;36.29
62011;BME280;47967;51.756;10.174;2023-05-09T16:16:35;99197.53;;;27.19;34.76
62011;BME280;47967;51.756;10.174;2023-05-09T16:20:38;99186.63;;;27.23;35.38
62011;BME280;47967;51.756;10.174;2023-05-09T16:24:42;99193.28;;;27.13;35.16
62011;BME280;47967;51.756;10.174;2023-05-09T16:28:45;99180.06;;;26.83;34.18
62011;BME280;47967;51.756;10.174;2023-05-09T16:32:49;99174.41;;;27.15;34.67
62011;BME280;47967;51.756;10.174;2023-05-09T16:36:52;99171.31;;;27.43;33.93
62011;BME280;47967;51.756;10.174;2023-05-09T16:40:55;99172.41;;;27.68;33.12
62011;BME280;47967;51.756;10.174;2023-05-09T16:44:57;99162.66;;;27.09;34.24
62011;BME280;47967;51.756;10.174;2023-05-09T16:49:01;99154.19;;;27.14;33.44
62011;BME280;47967;51.756;10.174;2023-05-09T16:53:04;99139.53;;;27.14;33.38
62011;BME280;47967;51.756;10.174;2023-05-09T16:57:06;99149.00;;;26.95;32.79
62011;BME280;47967;51.756;10.174;2023-05-09T17:01:09;99142.06;;;26.49;32.59
62011;BME280;47967;51.756;10.174;2023-05-09T17:05:14;99139.47;;;25.26;33.96
62011;BME280;47967;51.756;10.174;2023-05-09T17:09:16;99145.59;;;24.78;34.54
62011;BME280;47967;51.756;10.174;2023-05-09T17:13:19;99136.19;;;24.65;35.46
62011;BME280;47967;51.756;10.174;2023-05-09T17:17:21;99126.94;;;24.19;36.41
62011;BME280;47967;51.756;10.174;2023-05-09T17:21:25;99124.28;;;24.00;35.50
62011;BME280;47967;51.756;10.174;2023-05-09T17:25:28;99119.47;;;24.06;36.21
62011;BME280;47967;51.756;10.174;2023-05-09T17:29:30;99110.91;;;23.93;35.80
62011;BME280;47967;51.756;10.174;2023-05-09T17:33:33;99121.97;;;23.60;36.02
62011;BME280;47967;51.756;10.174;2023-05-09T17:37:37;99119.91;;;23.52;36.28
62011;BME280;47967;51.756;10.174;2023-05-09T17:41:40;99115.53;;;22.99;36.22
62011;BME280;47967;51.756;10.174;2023-05-09T17:45:42;99108.25;;;22.70;35.33
62011;BME280;47967;51.756;10.174;2023-05-09T17:49:46;99103.91;;;22.45;35.78
62011;BME280;47967;51.756;10.174;2023-05-09T17:53:50;99089.25;;;22.30;35.66
62011;BME280;47967;51.756;10.174;2023-05-09T17:57:53;99087.25;;;21.93;35.67
62011;BME280;47967;51.756;10.174;2023-05-09T18:01:55;99086.59;;;22.01;36.50
62011;BME280;47967;51.756;10.174;2023-05-09T18:05:58;99076.13;;;21.79;36.26
62011;BME280;47967;51.756;10.174;2023-05-09T18:10:04;99089.91;;;21.73;36.71
62011;BME280;47967;51.756;10.174;2023-05-09T18:14:07;99080.16;;;21.62;36.76
62011;BME280;47967;51.756;10.174;2023-05-09T18:18:10;99076.13;;;21.49;37.00
62011;BME280;47967;51.756;10.174;2023-05-09T18:22:15;99074.25;;;21.15;36.62
62011;BME280;47967;51.756;10.174;2023-05-09T18:26:20;99074.59;;;21.08;36.89
62011;BME280;47967;51.756;10.174;2023-05-09T18:30:23;99075.84;;;20.87;37.15
62011;BME280;47967;51.756;10.174;2023-05-09T18:34:25;99080.63;;;20.66;38.03
62011;BME280;47967;51.756;10.174;2023-05-09T18:38:28;99079.66;;;20.46;38.59
62011;BME280;47967;51.756;10.174;2023-05-09T18:42:36;99073.69;;;20.34;38.02
62011;BME280;47967;51.756;10.174;2023-05-09T18:46:38;99072.94;;;20.12;38.21
62011;BME280;47967;51.756;10.174;2023-05-09T18:50:41;99076.03;;;19.95;39.05
62011;BME280;47967;51.756;10.174;2023-05-09T18:54:44;99078.56;;;19.66;39.47
62011;BME280;47967;51.756;10.174;2023-05-09T18:58:48;99070.09;;;19.47;39.13
62011;BME280;47967;51.756;10.174;2023-05-09T19:02:50;99072.06;;;19.36;39.55
62011;BME280;47967;51.756;10.174;2023-05-09T19:06:53;99067.94;;;19.08;39.89
62011;BME280;47967;51.756;10.174;2023-05-09T19:10:56;99068.47;;;18.89;39.77
62011;BME280;47967;51.756;10.174;2023-05-09T19:15:00;99066.84;;;18.72;39.64
62011;BME280;47967;51.756;10.174;2023-05-09T19:19:02;99063.81;;;18.69;39.12
62011;BME280;47967;51.756;10.174;2023-05-09T19:23:05;99070.63;;;18.56;38.52
62011;BME280;47967;51.756;10.174;2023-05-09T19:27:07;99059.97;;;18.54;38.64
62011;BME280;47967;51.756;10.174;2023-05-09T19:31:12;99065.09;;;18.30;39.08
62011;BME280;47967;51.756;10.174;2023-05-09T19:35:15;99061.78;;;18.23;40.38
62011;BME280;47967;51.756;10.174;2023-05-09T19:39:17;99059.56;;;18.10;39.62
62011;BME280;47967;51.756;10.174;2023-05-09T19:43:20;99061.72;;;18.02;39.33
62011;BME280;47967;51.756;10.174;2023-05-09T19:47:23;99054.00;;;17.89;39.93
62011;BME280;47967;51.756;10.174;2023-05-09T19:51:26;99052.31;;;17.83;40.19
62011;BME280;47967;51.756;10.174;2023-05-09T19:55:29;99046.84;;;17.72;40.86
62011;BME280;47967;51.756;10.174;2023-05-09T19:59:31;99048.94;;;17.60;40.83
62011;BME280;47967;51.756;10.174;2023-05-09T20:03:35;99050.63;;;17.71;40.93
62011;BME280;47967;51.756;10.174;2023-05-09T20:07:39;99050.34;;;17.68;40.58
62011;BME280;47967;51.756;10.174;2023-05-09T20:11:41;99048.72;;;17.72;40.11
62011;BME280;47967;51.756;10.174;2023-05-09T20:15:44;99048.97;;;17.65;40.22
62011;BME280;47967;51.756;10.174;2023-05-09T20:19:48;99036.75;;;17.83;40.27
62011;BME280;47967;51.756;10.174;2023-05-09T20:23:51;99031.84;;;17.80;40.41
62011;BME280;47967;51.756;10.174;2023-05-09T20:27:53;99037.88;;;17.82;40.03
62011;BME280;47967;51.756;10.174;2023-05-09T20:31:56;99028.28;;;17.80;40.18
62011;BME280;47967;51.756;10.174;2023-05-09T20:36:00;99024.16;;;17.72;40.04
62011;BME280;47967;51.756;10.174;2023-05-09T20:40:05;99029.91;;;17.70;40.33
62011;BME280;47967;51.756;10.174;2023-05-09T20:44:08;99025.53;;;17.69;39.98
62011;BME280;47967;51.756;10.174;2023-05-09T20:48:13;99016.81;;;17.72;40.29
62011;BME280;47967;51.756;10.174;2023-05-09T20:52:17;99014.31;;;17.66;40.05
62011;BME280;47967;51.756;10.174;2023-05-09T20:56:19;99017.59;;;17.63;40.58
